METAR Data
IDs: Format: Raw Decoded Include TAF

Data at: 1349 UTC 27 Nov 2021

METAR for:KHCR (Heber City Muni, UT, US)
Text:KHCR 271335Z AUTO 00000KT 10SM CLR M07/M10 A3031 RMK AO2
Temperature: -7.0°C ( 19°F)
Dewpoint:-10.0°C ( 14°F) [RH = 79%]
Pressure (altimeter):30.31 inches Hg (1026.5 mb)
Winds:calm
Visibility:10 or more sm (16+ km)
Ceiling:at least 12,000 feet AGL
Clouds:sky clear below 12,000 feet AGL
QC Flag:automated observation with no human augmentation